Time;durP1;ratioP1;P1;durP2;ratioP2;P2;SDS_P1;SDS_P2;PMS_P1;PMS_P2;Temp;Humidity;BMP_temperature;BMP_pressure;BME280_temperature;BME280_humidity;BME280_pressure;Samples;Min_cycle;Max_cycle;Signal;HPM_P1;HPM_P2
2022/12/01 00:01:13;;;;;;;;;;;;;;;11.92;50.17;101768.03;5016681;27;126115;-63
2022/12/01 00:03:39;;;;;;;;;;;;;;;11.90;49.89;101770.13;5014959;27;98447;-62
2022/12/01 00:06:14;;;;;;;;;;;;;;;11.91;50.32;101771.78;5015810;27;116032;-66
2022/12/01 00:08:40;;;;;;;;;;;;;;;11.92;50.10;101769.91;5017504;27;98247;-63
2022/12/01 00:11:08;;;;;;;;;;;;;;;11.91;50.20;101773.69;5014322;27;127039;-64
2022/12/01 00:13:34;;;;;;;;;;;;;;;11.92;50.26;101778.84;5016571;27;98442;-66
2022/12/01 00:16:13;;;;;;;;;;;;;;;11.91;50.23;101779.09;5017041;27;117162;-63
2022/12/01 00:18:39;;;;;;;;;;;;;;;11.90;50.21;101780.13;5015891;27;123859;-64
2022/12/01 00:21:05;;;;;;;;;;;;;;;11.88;50.04;101774.97;5014905;27;128131;-63
2022/12/01 00:23:31;;;;;;;;;;;;;;;11.89;50.11;101773.91;5013623;27;98292;-63
2022/12/01 00:26:04;;;;;;;;;;;;;;;11.88;50.31;101772.28;5018635;27;98191;-65
2022/12/01 00:28:30;;;;;;;;;;;;;;;11.88;50.11;101774.16;5011373;27;125905;-64
2022/12/01 00:30:56;;;;;;;;;;;;;;;11.88;50.33;101763.34;5015946;27;128281;-65
2022/12/01 00:33:21;;;;;;;;;;;;;;;11.87;50.13;101762.53;5007707;27;113176;-63
2022/12/01 00:35:47;;;;;;;;;;;;;;;11.86;50.10;101760.06;4989907;27;116179;-64
2022/12/01 00:38:13;;;;;;;;;;;;;;;11.87;50.12;101767.09;5000568;27;129165;-65
2022/12/01 00:40:39;;;;;;;;;;;;;;;11.84;50.24;101771.13;4991407;27;127334;-64
2022/12/01 00:43:05;;;;;;;;;;;;;;;11.86;50.21;101778.97;4998871;27;127862;-63
2022/12/01 00:45:31;;;;;;;;;;;;;;;11.86;50.31;101768.19;4991713;27;117558;-65
2022/12/01 00:47:57;;;;;;;;;;;;;;;11.85;50.33;101771.94;5010753;27;127774;-63
2022/12/01 00:50:23;;;;;;;;;;;;;;;11.84;50.25;101767.63;5015785;27;127042;-63
2022/12/01 00:52:49;;;;;;;;;;;;;;;11.84;50.10;101773.00;5013740;27;128300;-65
2022/12/01 00:55:15;;;;;;;;;;;;;;;11.84;50.21;101775.72;4998750;27;117411;-65
2022/12/01 00:57:40;;;;;;;;;;;;;;;11.82;50.32;101780.50;5016529;27;128149;-63
2022/12/01 01:00:07;;;;;;;;;;;;;;;11.83;50.33;101780.31;5020332;27;128200;-65
2022/12/01 01:02:33;;;;;;;;;;;;;;;11.83;50.39;101780.31;5014909;27;117506;-65
2022/12/01 01:04:59;;;;;;;;;;;;;;;11.84;49.86;101789.22;5015700;27;118278;-63
2022/12/01 01:07:25;;;;;;;;;;;;;;;11.84;50.18;101778.41;5016845;27;128328;-64
2022/12/01 01:09:51;;;;;;;;;;;;;;;11.84;50.15;101781.13;5015534;27;128016;-63
2022/12/01 01:12:17;;;;;;;;;;;;;;;11.84;50.33;101783.81;5014728;27;112530;-66
2022/12/01 01:14:43;;;;;;;;;;;;;;;11.83;50.35;101783.00;5015776;27;118006;-65
2022/12/01 01:17:09;;;;;;;;;;;;;;;11.83;50.17;101782.13;4998493;27;98047;-63
2022/12/01 01:19:35;;;;;;;;;;;;;;;11.82;50.20;101784.03;5014926;27;127338;-64
2022/12/01 01:22:01;;;;;;;;;;;;;;;11.83;50.15;101784.84;5001569;27;98265;-64
2022/12/01 01:24:27;;;;;;;;;;;;;;;11.82;50.26;101786.72;5018156;27;119091;-63
2022/12/01 01:26:54;;;;;;;;;;;;;;;11.83;50.11;101785.72;5013442;27;127143;-65
2022/12/01 01:29:20;;;;;;;;;;;;;;;11.83;50.20;101779.44;5015722;27;98589;-65
2022/12/01 01:31:46;;;;;;;;;;;;;;;11.83;50.12;101779.44;5016354;27;127302;-63
2022/12/01 01:34:12;;;;;;;;;;;;;;;11.82;50.31;101775.91;5010288;27;112528;-63
2022/12/01 01:36:37;;;;;;;;;;;;;;;11.80;50.21;101776.16;4996008;27;119061;-64
2022/12/01 01:39:03;;;;;;;;;;;;;;;11.83;50.15;101779.44;5016030;27;99477;-65
2022/12/01 01:41:29;;;;;;;;;;;;;;;11.80;50.24;101781.56;4996777;27;128374;-64
2022/12/01 01:44:00;;;;;;;;;;;;;;;11.81;50.01;101785.09;5013835;27;98205;-63
2022/12/01 01:46:33;;;;;;;;;;;;;;;11.81;50.16;101782.38;5013891;27;98553;-65
2022/12/01 01:49:01;;;;;;;;;;;;;;;11.80;50.22;101786.97;5015559;27;106123;-64
2022/12/01 01:51:34;;;;;;;;;;;;;;;11.80;50.08;101784.28;5005947;27;98707;-65
2022/12/01 01:54:03;;;;;;;;;;;;;;;11.79;50.24;101771.84;5015376;27;97965;-63
2022/12/01 01:56:29;;;;;;;;;;;;;;;11.78;50.18;101783.69;5018022;27;109510;-63
2022/12/01 01:58:55;;;;;;;;;;;;;;;11.78;50.08;101772.88;4990318;27;127911;-63
2022/12/01 02:01:21;;;;;;;;;;;;;;;11.79;50.14;101790.75;5017285;27;127044;-65
2022/12/01 02:03:47;;;;;;;;;;;;;;;11.78;50.22;101783.69;5015537;27;118097;-64
2022/12/01 02:06:13;;;;;;;;;;;;;;;11.77;50.22;101790.16;4995823;27;98452;-63
2022/12/01 02:08:39;;;;;;;;;;;;;;;11.78;50.11;101785.56;4996362;27;99103;-63
2022/12/01 02:11:27;;;;;;;;;;;;;;;11.78;50.10;101780.16;5016350;27;98285;-63
2022/12/01 02:14:17;;;;;;;;;;;;;;;11.77;50.21;101782.06;4999812;27;115464;-63
2022/12/01 02:16:53;;;;;;;;;;;;;;;11.77;50.29;101781.22;4987619;27;126804;-64
2022/12/01 02:19:35;;;;;;;;;;;;;;;11.76;50.05;101785.81;4987514;27;98645;-63
2022/12/01 02:22:21;;;;;;;;;;;;;;;11.76;50.25;101787.72;4999441;27;98144;-63
2022/12/01 02:25:20;;;;;;;;;;;;;;;11.75;50.11;101784.19;4983335;27;108731;-64
2022/12/01 02:27:58;;;;;;;;;;;;;;;11.73;50.18;101780.09;4994858;27;98331;-64
2022/12/01 02:30:38;;;;;;;;;;;;;;;11.71;50.24;101776.78;4985456;27;102791;-63
2022/12/01 02:33:26;;;;;;;;;;;;;;;11.68;50.26;101778.13;4971880;27;121358;-65
2022/12/01 02:36:00;;;;;;;;;;;;;;;11.66;50.07;101785.63;5016037;27;117865;-63
2022/12/01 02:38:44;;;;;;;;;;;;;;;11.64;50.14;101784.25;4975343;27;99032;-64
2022/12/01 02:41:26;;;;;;;;;;;;;;;11.62;50.03;101784.47;4995102;27;127804;-63
2022/12/01 02:44:06;;;;;;;;;;;;;;;11.61;50.12;101779.31;4980593;27;98027;-64
2022/12/01 02:46:36;;;;;;;;;;;;;;;11.60;50.10;101785.81;4991103;27;117217;-65
2022/12/01 02:49:06;;;;;;;;;;;;;;;11.59;50.18;101781.44;4994970;27;98785;-65
2022/12/01 02:51:32;;;;;;;;;;;;;;;11.58;50.15;101783.31;4977508;27;127993;-65
2022/12/01 02:53:59;;;;;;;;;;;;;;;11.57;50.08;101789.78;4981326;27;122957;-65
2022/12/01 02:56:25;;;;;;;;;;;;;;;11.55;50.18;101787.34;4982318;27;98123;-64
2022/12/01 02:58:51;;;;;;;;;;;;;;;11.54;50.16;101791.09;5015216;27;128641;-64
2022/12/01 03:01:33;;;;;;;;;;;;;;;11.55;50.09;101784.66;5011446;27;128499;-64
2022/12/01 03:04:13;;;;;;;;;;;;;;;11.53;49.99;101788.63;4991843;27;98180;-66
2022/12/01 03:07:04;;;;;;;;;;;;;;;11.52;50.08;101787.81;4998205;27;114621;-62
2022/12/01 03:09:52;;;;;;;;;;;;;;;11.51;50.24;101794.28;5014348;27;98697;-63
2022/12/01 03:12:23;;;;;;;;;;;;;;;11.50;50.18;101794.50;4995643;27;98932;-63
2022/12/01 03:14:48;;;;;;;;;;;;;;;11.50;50.29;101795.31;4992925;27;123375;-62
2022/12/01 03:17:17;;;;;;;;;;;;;;;11.49;49.90;101798.28;5014950;27;98125;-65
2022/12/01 03:20:10;;;;;;;;;;;;;;;11.49;50.12;101792.88;5009353;27;99659;-63
2022/12/01 03:22:44;;;;;;;;;;;;;;;11.48;50.05;101791.25;4988992;27;98340;-63
2022/12/01 03:25:11;;;;;;;;;;;;;;;11.47;50.15;101793.09;4980134;27;117085;-63
2022/12/01 03:27:38;;;;;;;;;;;;;;;11.45;50.23;101795.25;4980224;27;98018;-65
2022/12/01 03:30:09;;;;;;;;;;;;;;;11.45;50.26;101787.13;4978457;27;104406;-65
2022/12/01 03:32:41;;;;;;;;;;;;;;;11.44;50.31;101788.22;5010037;27;101101;-62
2022/12/01 03:35:13;;;;;;;;;;;;;;;11.45;50.08;101797.13;4977965;27;97833;-63
2022/12/01 03:37:48;;;;;;;;;;;;;;;11.44;50.33;101795.50;4993243;27;98088;-63
2022/12/01 03:40:16;;;;;;;;;;;;;;;11.43;50.15;101791.13;4982335;27;128441;-65
2022/12/01 03:42:46;;;;;;;;;;;;;;;11.41;50.12;101785.97;4989849;27;98130;-65
2022/12/01 03:45:16;;;;;;;;;;;;;;;11.41;50.03;101791.38;4997497;27;98070;-65
2022/12/01 03:47:42;;;;;;;;;;;;;;;11.41;49.92;101788.69;4998037;27;114832;-65
2022/12/01 03:50:10;;;;;;;;;;;;;;;11.41;50.07;101788.69;5018155;27;99107;-64
2022/12/01 03:52:56;;;;;;;;;;;;;;;11.40;50.06;101792.47;4981611;27;98738;-64
2022/12/01 03:55:27;;;;;;;;;;;;;;;11.39;50.07;101798.06;5000916;27;98568;-63
2022/12/01 03:58:32;;;;;;;;;;;;;;;11.38;50.28;101793.75;4995857;27;113227;-64
2022/12/01 04:01:00;;;;;;;;;;;;;;;11.38;50.14;101797.25;4996277;27;99160;-63
2022/12/01 04:03:27;;;;;;;;;;;;;;;11.37;50.17;101798.31;4993431;27;123058;-65
2022/12/01 04:05:52;;;;;;;;;;;;;;;11.35;50.30;101786.94;5014775;27;98297;-63
2022/12/01 04:08:18;;;;;;;;;;;;;;;11.36;49.73;101804.78;4981366;27;117635;-64
2022/12/01 04:10:44;;;;;;;;;;;;;;;11.36;50.17;101791.28;4979265;27;100096;-64
2022/12/01 04:13:22;;;;;;;;;;;;;;;11.35;50.16;101791.53;5015396;27;126549;-63
2022/12/01 04:15:51;;;;;;;;;;;;;;;11.34;50.21;101798.81;5008499;27;98124;-63
2022/12/01 04:18:17;;;;;;;;;;;;;;;11.35;50.17;101799.63;4982254;27;111139;-64
2022/12/01 04:20:45;;;;;;;;;;;;;;;11.33;49.95;101802.56;5011093;27;128662;-63
2022/12/01 04:23:58;;;;;;;;;;;;;;;11.33;50.23;101790.97;4993832;27;100752;-64
2022/12/01 04:25:59;;;;;;;;;;;;;;;11.31;50.05;101786.59;5012680;27;98224;-62
2022/12/01 04:28:25;;;;;;;;;;;;;;;11.31;49.96;101783.91;5018660;27;97751;-63
2022/12/01 04:30:50;;;;;;;;;;;;;;;11.31;50.12;101791.19;5016029;27;124002;-65
2022/12/01 04:33:16;;;;;;;;;;;;;;;11.31;50.03;101781.19;5015009;27;128047;-64
2022/12/01 04:35:42;;;;;;;;;;;;;;;11.31;50.13;101785.78;5016524;27;98173;-63
2022/12/01 04:38:08;;;;;;;;;;;;;;;11.31;50.25;101792.00;5012866;27;116634;-63
2022/12/01 04:40:34;;;;;;;;;;;;;;;11.31;50.12;101786.59;5013758;27;128160;-62
2022/12/01 04:43:00;;;;;;;;;;;;;;;11.31;50.25;101792.00;4996553;27;127687;-65
2022/12/01 04:45:27;;;;;;;;;;;;;;;11.31;50.15;101802.78;4995382;27;127473;-64
2022/12/01 04:47:53;;;;;;;;;;;;;;;11.32;50.10;101809.03;4996974;27;104791;-63
2022/12/01 04:50:18;;;;;;;;;;;;;;;11.34;50.13;101806.91;4995831;27;128110;-63
2022/12/01 04:52:45;;;;;;;;;;;;;;;11.34;50.08;101811.47;4996978;27;126007;-63
2022/12/01 04:55:14;;;;;;;;;;;;;;;11.35;50.07;101815.81;5018780;27;97929;-63
2022/12/01 04:57:40;;;;;;;;;;;;;;;11.35;49.98;101813.13;5017564;27;98871;-63
2022/12/01 05:00:11;;;;;;;;;;;;;;;11.36;49.98;101812.91;4996987;27;100335;-63
2022/12/01 05:02:38;;;;;;;;;;;;;;;11.37;50.01;101819.94;4999369;27;98199;-65
2022/12/01 05:05:05;;;;;;;;;;;;;;;11.37;49.96;101819.94;5015862;27;103917;-64
2022/12/01 05:07:31;;;;;;;;;;;;;;;11.37;49.99;101811.81;5017537;27;98146;-65
2022/12/01 05:09:57;;;;;;;;;;;;;;;11.37;50.17;101824.50;5015023;27;125109;-63
2022/12/01 05:12:23;;;;;;;;;;;;;;;11.36;50.12;101817.44;4999330;27;101571;-64
2022/12/01 05:14:49;;;;;;;;;;;;;;;11.35;50.07;101818.50;5009578;27;125505;-65
2022/12/01 05:17:15;;;;;;;;;;;;;;;11.32;50.09;101811.72;4983770;27;118409;-64
2022/12/01 05:22:25;;;;;;;;;;;;;;;11.27;50.15;101809.72;5012582;27;98261;-63
2022/12/01 05:24:51;;;;;;;;;;;;;;;11.24;50.15;101814.81;4995406;27;127642;-63
2022/12/01 05:27:17;;;;;;;;;;;;;;;11.23;49.98;101821.25;5010461;27;116548;-65
2022/12/01 05:29:43;;;;;;;;;;;;;;;11.21;49.94;101813.41;5010429;27;127614;-64
2022/12/01 05:32:09;;;;;;;;;;;;;;;11.20;50.08;101811.78;4994570;27;127899;-63
2022/12/01 05:34:35;;;;;;;;;;;;;;;11.19;50.34;101820.91;4996229;27;111068;-63
2022/12/01 05:37:01;;;;;;;;;;;;;;;11.19;50.06;101820.91;4996808;27;98274;-65
2022/12/01 05:39:27;;;;;;;;;;;;;;;11.19;50.12;101823.59;4988280;27;130056;-64
2022/12/01 05:41:53;;;;;;;;;;;;;;;11.18;50.02;101819.28;4988341;27;128316;-65
2022/12/01 05:44:19;;;;;;;;;;;;;;;11.18;50.03;101821.16;4991418;27;98084;-63
2022/12/01 05:46:44;;;;;;;;;;;;;;;11.17;50.05;101825.72;5012077;27;118545;-64
2022/12/01 05:49:10;;;;;;;;;;;;;;;11.16;50.12;101824.09;5004221;27;127789;-63
2022/12/01 05:51:36;;;;;;;;;;;;;;;11.14;50.08;101823.50;4988175;27;106525;-64
2022/12/01 05:54:02;;;;;;;;;;;;;;;11.16;49.97;101823.25;4992728;27;108673;-65
2022/12/01 05:56:28;;;;;;;;;;;;;;;11.20;50.03;101825.25;4977460;27;116398;-65
2022/12/01 05:58:54;;;;;;;;;;;;;;;11.27;50.38;101817.00;4995190;27;127702;-66
2022/12/01 06:01:20;;;;;;;;;;;;;;;11.34;50.11;101819.59;4990897;27;122280;-63
2022/12/01 06:03:46;;;;;;;;;;;;;;;11.39;50.18;101814.28;4997760;27;127699;-65
2022/12/01 06:06:12;;;;;;;;;;;;;;;11.43;50.24;101812.72;4997026;27;117582;-65
2022/12/01 06:08:38;;;;;;;;;;;;;;;11.45;50.09;101811.44;5001473;27;128439;-64
2022/12/01 06:11:04;;;;;;;;;;;;;;;11.48;50.24;101812.84;4998969;27;104504;-64
2022/12/01 06:13:30;;;;;;;;;;;;;;;11.49;50.14;101807.19;4993016;27;118900;-63
2022/12/01 06:16:01;;;;;;;;;;;;;;;11.51;50.18;101812.34;5000230;27;116850;-63
2022/12/01 06:18:28;;;;;;;;;;;;;;;11.52;50.19;101816.72;4978585;27;98784;-65
2022/12/01 06:20:54;;;;;;;;;;;;;;;11.54;50.08;101820.78;4998932;27;126233;-65
2022/12/01 06:23:20;;;;;;;;;;;;;;;11.54;50.06;101820.78;4996608;27;127336;-63
2022/12/01 06:25:46;;;;;;;;;;;;;;;11.54;49.99;101822.69;4995005;27;98291;-64
2022/12/01 06:28:12;;;;;;;;;;;;;;;11.53;50.17;101819.16;4998016;27;128592;-65
2022/12/01 06:30:38;;;;;;;;;;;;;;;11.53;50.23;101829.97;4998361;27;117317;-64
2022/12/01 06:33:04;;;;;;;;;;;;;;;11.52;50.26;101824.81;4997016;27;97983;-64
2022/12/01 06:35:30;;;;;;;;;;;;;;;11.52;50.11;101836.44;4999477;27;97932;-63
2022/12/01 06:37:56;;;;;;;;;;;;;;;11.52;50.24;101833.72;4994569;27;128200;-63
2022/12/01 06:40:22;;;;;;;;;;;;;;;11.50;49.98;101841.22;4993374;27;98783;-63
2022/12/01 06:42:48;;;;;;;;;;;;;;;11.51;50.05;101840.19;5004242;27;98287;-64
2022/12/01 06:45:14;;;;;;;;;;;;;;;11.49;50.16;101839.59;5004714;27;117510;-63
2022/12/01 06:47:40;;;;;;;;;;;;;;;11.48;50.18;101835.28;4997014;27;100158;-64
2022/12/01 06:50:08;;;;;;;;;;;;;;;11.47;50.22;101844.41;5008699;27;98066;-63
2022/12/01 06:52:35;;;;;;;;;;;;;;;11.46;50.21;101839.25;5024379;27;98042;-63
2022/12/01 06:55:02;;;;;;;;;;;;;;;11.45;50.37;101843.03;5023127;27;97721;-63
2022/12/01 06:57:28;;;;;;;;;;;;;;;11.44;50.26;101855.72;4995833;27;99086;-65
2022/12/01 06:59:54;;;;;;;;;;;;;;;11.43;50.21;101859.44;5015498;27;117394;-66
2022/12/01 07:02:20;;;;;;;;;;;;;;;11.41;50.38;101856.19;5018829;27;126979;-63
2022/12/01 07:04:46;;;;;;;;;;;;;;;11.39;50.29;101854.78;5016145;27;116739;-63
2022/12/01 07:07:12;;;;;;;;;;;;;;;11.40;50.01;101853.72;5017785;27;126470;-65
2022/12/01 07:09:38;;;;;;;;;;;;;;;11.39;49.98;101852.88;5015447;27;127224;-65
2022/12/01 07:12:04;;;;;;;;;;;;;;;11.36;50.01;101853.38;5014116;27;124683;-64
2022/12/01 07:14:30;;;;;;;;;;;;;;;11.37;50.28;101859.59;5016869;27;112005;-63
2022/12/01 07:16:57;;;;;;;;;;;;;;;11.36;50.13;101855.25;5017043;27;98721;-63
2022/12/01 07:19:23;;;;;;;;;;;;;;;11.35;50.13;101861.72;5016996;27;123009;-63
2022/12/01 07:21:49;;;;;;;;;;;;;;;11.34;50.09;101860.06;5013801;27;98016;-63
2022/12/01 07:24:15;;;;;;;;;;;;;;;11.31;50.18;101866.75;5011960;27;116485;-65
2022/12/01 07:26:41;;;;;;;;;;;;;;;11.31;50.01;101858.66;4996821;27;117107;-63
2022/12/01 07:29:08;;;;;;;;;;;;;;;11.31;50.23;101864.06;5014897;27;98313;-65
2022/12/01 07:31:34;;;;;;;;;;;;;;;11.30;50.26;101862.44;5014059;27;97983;-63
2022/12/01 07:33:59;;;;;;;;;;;;;;;11.29;49.81;101853.50;5012058;27;98808;-64
2022/12/01 07:36:25;;;;;;;;;;;;;;;11.29;50.26;101861.63;5014341;27;128063;-63
2022/12/01 07:38:51;;;;;;;;;;;;;;;11.29;49.92;101866.19;5013711;27;98304;-62
2022/12/01 07:41:18;;;;;;;;;;;;;;;11.28;49.99;101861.88;5018509;27;127095;-65
2022/12/01 07:43:44;;;;;;;;;;;;;;;11.29;50.09;101863.50;5001172;27;97825;-63
2022/12/01 07:46:14;;;;;;;;;;;;;;;11.27;49.86;101869.13;5017639;27;123258;-63
2022/12/01 07:48:40;;;;;;;;;;;;;;;11.27;49.93;101871.00;5018820;27;98353;-64
2022/12/01 07:51:07;;;;;;;;;;;;;;;11.26;49.99;101867.47;5013981;27;117432;-63
2022/12/01 07:53:33;;;;;;;;;;;;;;;11.26;49.91;101872.88;5024129;27;116909;-63
2022/12/01 07:55:59;;;;;;;;;;;;;;;11.26;50.06;101862.09;5024041;27;99437;-65
2022/12/01 07:58:25;;;;;;;;;;;;;;;11.27;50.28;101871.00;4998608;27;98626;-63
2022/12/01 08:00:51;;;;;;;;;;;;;;;11.26;49.85;101874.75;5003381;27;102610;-64
2022/12/01 08:03:17;;;;;;;;;;;;;;;11.24;49.87;101871.50;5001297;27;114208;-64
2022/12/01 08:05:43;;;;;;;;;;;;;;;11.26;50.05;101874.75;5017491;27;128739;-63
2022/12/01 08:08:09;;;;;;;;;;;;;;;11.25;50.11;101873.94;5016083;27;128213;-65
2022/12/01 08:10:35;;;;;;;;;;;;;;;11.25;49.92;101881.22;5014921;27;98422;-64
2022/12/01 08:13:01;;;;;;;;;;;;;;;11.23;50.22;101869.84;5020552;27;97953;-64
2022/12/01 08:15:27;;;;;;;;;;;;;;;11.24;49.78;101879.59;5016923;27;108946;-64
2022/12/01 08:17:53;;;;;;;;;;;;;;;11.23;49.75;101873.34;5013886;27;128527;-65
2022/12/01 08:20:20;;;;;;;;;;;;;;;11.22;50.06;101877.13;5017838;27;124426;-65
2022/12/01 08:22:46;;;;;;;;;;;;;;;11.24;49.96;101879.59;4994310;27;97881;-65
2022/12/01 08:25:12;;;;;;;;;;;;;;;11.24;50.06;101882.28;5019771;27;128196;-64
2022/12/01 08:27:38;;;;;;;;;;;;;;;11.22;50.14;101882.50;5020223;27;127714;-62
2022/12/01 08:30:04;;;;;;;;;;;;;;;11.22;49.86;101877.13;4999974;27;126982;-65
2022/12/01 08:32:30;;;;;;;;;;;;;;;11.21;50.33;101880.06;5020445;27;106363;-63
2022/12/01 08:34:56;;;;;;;;;;;;;;;11.22;49.69;101885.22;5018205;27;127917;-63
2022/12/01 08:37:22;;;;;;;;;;;;;;;11.22;49.88;101882.50;5019906;27;127226;-63
2022/12/01 08:39:48;;;;;;;;;;;;;;;11.21;49.96;101888.16;5018543;27;126383;-63
2022/12/01 08:42:14;;;;;;;;;;;;;;;11.21;49.86;101888.97;5020749;27;117273;-64
2022/12/01 08:44:40;;;;;;;;;;;;;;;11.20;49.80;101889.19;5016794;27;128158;-65
2022/12/01 08:47:05;;;;;;;;;;;;;;;11.21;50.11;101885.47;5016490;27;126009;-64
2022/12/01 08:49:31;;;;;;;;;;;;;;;11.19;50.09;101890.25;5001105;27;128380;-64
2022/12/01 08:51:57;;;;;;;;;;;;;;;11.20;49.87;101886.50;5018821;27;118656;-63
2022/12/01 08:54:23;;;;;;;;;;;;;;;11.19;49.97;101893.78;5010256;27;129071;-65
2022/12/01 08:56:49;;;;;;;;;;;;;;;11.19;49.80;101888.38;5011862;27;99028;-65
2022/12/01 08:59:15;;;;;;;;;;;;;;;11.19;49.86;101891.06;5009347;27;125198;-64
2022/12/01 09:01:53;;;;;;;;;;;;;;;11.19;49.98;101893.78;5022275;27;97836;-63
2022/12/01 09:04:23;;;;;;;;;;;;;;;11.20;49.86;101897.28;5022561;27;97990;-63
2022/12/01 09:06:49;;;;;;;;;;;;;;;11.20;49.90;101895.44;5003807;27;98296;-63
2022/12/01 09:09:18;;;;;;;;;;;;;;;11.21;50.02;101894.38;5002604;27;97966;-64
2022/12/01 09:11:44;;;;;;;;;;;;;;;11.22;49.83;101896.00;5020154;27;98110;-62
2022/12/01 09:14:14;;;;;;;;;;;;;;;11.23;49.93;101892.25;5019591;27;98882;-64
2022/12/01 09:16:41;;;;;;;;;;;;;;;11.24;49.52;101893.91;5018382;27;98253;-63
2022/12/01 09:19:07;;;;;;;;;;;;;;;11.26;50.04;101893.66;5016928;27;98087;-64
2022/12/01 09:21:34;;;;;;;;;;;;;;;11.28;49.72;101896.97;5015447;27;98114;-63
2022/12/01 09:24:00;;;;;;;;;;;;;;;11.28;49.81;101903.16;5016007;27;98496;-63
2022/12/01 09:26:26;;;;;;;;;;;;;;;11.30;49.68;101898.34;5013062;27;99777;-63
2022/12/01 09:28:53;;;;;;;;;;;;;;;11.31;49.96;101901.84;5014611;27;122192;-65
2022/12/01 09:31:22;;;;;;;;;;;;;;;11.34;49.62;101900.56;5018354;27;97954;-63
2022/12/01 09:33:52;;;;;;;;;;;;;;;11.36;49.92;101909.22;5017308;27;98970;-65
2022/12/01 09:36:18;;;;;;;;;;;;;;;11.37;49.64;101898.22;5014074;27;123582;-65
2022/12/01 09:38:44;;;;;;;;;;;;;;;11.39;49.57;101892.56;5015935;27;128177;-65
2022/12/01 09:41:37;;;;;;;;;;;;;;;11.40;49.89;101899.63;5022845;27;118449;-63
2022/12/01 09:44:38;;;;;;;;;;;;;;;11.41;49.77;101896.69;4982120;27;99654;-65
2022/12/01 09:47:19;;;;;;;;;;;;;;;11.42;49.87;101890.22;4996174;27;98793;-63
2022/12/01 09:50:06;;;;;;;;;;;;;;;11.43;49.84;101877.53;4965124;27;128191;-64
2022/12/01 09:52:40;;;;;;;;;;;;;;;11.45;49.63;101878.94;4952472;27;99093;-63
2022/12/01 09:55:13;;;;;;;;;;;;;;;11.46;49.53;101877.06;4998204;27;109629;-63
2022/12/01 09:57:39;;;;;;;;;;;;;;;11.45;49.93;101872.72;4963956;27;118041;-63
2022/12/01 10:00:17;;;;;;;;;;;;;;;11.44;49.61;101879.19;4965050;27;99859;-63
2022/12/01 10:03:23;;;;;;;;;;;;;;;11.45;49.65;101878.13;4981393;27;116085;-63
2022/12/01 10:06:09;;;;;;;;;;;;;;;11.45;49.84;101883.53;4998552;27;100434;-63
2022/12/01 10:08:36;;;;;;;;;;;;;;;11.45;49.51;101878.13;4974617;27;98476;-64
2022/12/01 10:11:11;;;;;;;;;;;;;;;11.44;49.71;101871.09;4978810;27;122069;-63
2022/12/01 10:13:37;;;;;;;;;;;;;;;11.43;49.91;101870.25;4998089;27;111237;-63
2022/12/01 10:16:14;;;;;;;;;;;;;;;11.44;49.84;101877.31;5001662;27;126143;-63
2022/12/01 10:19:04;;;;;;;;;;;;;;;11.44;49.74;101861.13;4982315;27;126127;-63
2022/12/01 10:21:56;;;;;;;;;;;;;;;11.45;49.85;101862.75;4996285;27;98684;-63
2022/12/01 10:24:32;;;;;;;;;;;;;;;11.45;49.96;101862.75;4981738;27;97889;-62
2022/12/01 10:26:58;;;;;;;;;;;;;;;11.46;49.79;101858.97;4977264;27;120379;-64
2022/12/01 10:29:39;;;;;;;;;;;;;;;11.48;49.72;101850.66;5001149;27;98803;-65
2022/12/01 10:32:21;;;;;;;;;;;;;;;11.48;49.80;101858.75;4999106;27;98347;-65
2022/12/01 10:34:47;;;;;;;;;;;;;;;11.50;49.55;101860.13;4990845;27;118986;-64
2022/12/01 10:37:17;;;;;;;;;;;;;;;11.51;49.96;101848.31;4998029;27;99627;-63
2022/12/01 10:39:45;;;;;;;;;;;;;;;11.51;49.70;101863.66;4998801;27;98885;-64
2022/12/01 10:42:36;;;;;;;;;;;;;;;11.52;49.83;101863.44;4987125;27;97981;-64
2022/12/01 10:45:06;;;;;;;;;;;;;;;11.51;49.78;101863.66;4981384;27;98265;-63
2022/12/01 10:47:32;;;;;;;;;;;;;;;11.51;49.71;101852.84;5002118;27;128686;-64
2022/12/01 10:49:58;;;;;;;;;;;;;;;11.51;49.79;101858.25;5005512;27;112643;-64
2022/12/01 10:52:37;;;;;;;;;;;;;;;11.50;49.89;101854.75;5017423;27;127537;-65
2022/12/01 10:55:25;;;;;;;;;;;;;;;11.51;49.77;101850.16;5011263;27;98144;-64
2022/12/01 10:57:51;;;;;;;;;;;;;;;11.49;49.72;101855.00;5017969;27;98947;-63
2022/12/01 11:00:28;;;;;;;;;;;;;;;11.51;49.79;101848.31;4997060;27;127046;-65
2022/12/01 11:02:54;;;;;;;;;;;;;;;11.51;49.78;101848.31;4981220;27;127444;-65
2022/12/01 11:05:28;;;;;;;;;;;;;;;11.50;49.70;101853.91;4993702;27;117507;-64
2022/12/01 11:07:54;;;;;;;;;;;;;;;11.51;49.74;101850.16;5013355;27;99161;-63
2022/12/01 11:10:29;;;;;;;;;;;;;;;11.49;49.70;101855.00;5013875;27;126567;-64
2022/12/01 11:13:04;;;;;;;;;;;;;;;11.50;49.77;101851.22;5014351;27;98542;-63
2022/12/01 11:15:37;;;;;;;;;;;;;;;11.49;49.82;101847.69;4994637;27;116886;-64
2022/12/01 11:18:24;;;;;;;;;;;;;;;11.50;49.71;101843.13;4996182;27;98759;-64
2022/12/01 11:21:13;;;;;;;;;;;;;;;11.50;49.78;101827.72;4994589;27;98774;-64
2022/12/01 11:23:49;;;;;;;;;;;;;;;11.51;49.87;101836.66;5014430;27;109645;-64
2022/12/01 11:26:25;;;;;;;;;;;;;;;11.50;49.71;101835.84;5008438;27;97975;-63
2022/12/01 11:28:59;;;;;;;;;;;;;;;11.51;49.85;101834.78;5010052;27;98157;-65
2022/12/01 11:31:42;;;;;;;;;;;;;;;11.52;49.69;101832.91;4981635;27;101582;-63
2022/12/01 11:34:26;;;;;;;;;;;;;;;11.53;49.74;101835.34;4998633;27;122578;-65
2022/12/01 11:36:53;;;;;;;;;;;;;;;11.53;49.72;101824.56;4998351;27;113970;-63
2022/12/01 11:39:32;;;;;;;;;;;;;;;11.54;49.71;101828.88;5016880;27;101045;-63
2022/12/01 11:42:03;;;;;;;;;;;;;;;11.54;49.75;101825.38;5016005;27;122423;-64
2022/12/01 11:44:29;;;;;;;;;;;;;;;11.54;49.77;101831.59;4999104;27;97945;-65
2022/12/01 11:46:57;;;;;;;;;;;;;;;11.55;49.81;101830.56;5001435;27;99771;-64
2022/12/01 11:49:24;;;;;;;;;;;;;;;11.56;49.63;101828.66;5015290;27;98415;-63
2022/12/01 11:51:50;;;;;;;;;;;;;;;11.57;49.79;101827.59;4994720;27;98614;-63
2022/12/01 11:54:21;;;;;;;;;;;;;;;11.58;49.65;101828.41;5017524;27;127647;-64
2022/12/01 11:56:47;;;;;;;;;;;;;;;11.59;49.81;101824.66;5014366;27;97940;-63
2022/12/01 11:59:31;;;;;;;;;;;;;;;11.58;49.66;101831.13;5002263;27;98290;-65
2022/12/01 12:02:29;;;;;;;;;;;;;;;11.59;49.62;101817.38;5019298;27;99263;-64
2022/12/01 12:05:27;;;;;;;;;;;;;;;11.59;49.80;101828.16;4980314;27;98252;-64
2022/12/01 12:07:57;;;;;;;;;;;;;;;11.59;49.64;101828.16;5004564;27;99266;-63
2022/12/01 12:10:39;;;;;;;;;;;;;;;11.59;49.78;101828.16;5017405;27;98425;-63
2022/12/01 12:13:14;;;;;;;;;;;;;;;11.60;49.63;101831.72;5018198;27;99755;-65
2022/12/01 12:15:55;;;;;;;;;;;;;;;11.60;49.74;101826.31;4997819;27;98252;-63
2022/12/01 12:18:49;;;;;;;;;;;;;;;11.61;49.79;101833.34;5016623;27;118221;-63
2022/12/01 12:21:21;;;;;;;;;;;;;;;11.59;49.55;101820.06;4989662;27;122645;-64
2022/12/01 12:24:09;;;;;;;;;;;;;;;11.58;49.71;101813.03;5002381;27;127223;-65
2022/12/01 12:26:43;;;;;;;;;;;;;;;11.59;49.70;101811.16;5020316;27;97963;-65
2022/12/01 12:29:34;;;;;;;;;;;;;;;11.58;49.73;101807.63;4997370;27;98111;-63
2022/12/01 12:32:21;;;;;;;;;;;;;;;11.58;49.87;101809.50;5019900;27;98137;-64
2022/12/01 12:34:52;;;;;;;;;;;;;;;11.57;49.89;101807.88;5018698;27;98380;-63
2022/12/01 12:37:33;;;;;;;;;;;;;;;11.57;49.89;101808.69;5017807;27;99458;-64
2022/12/01 12:40:21;;;;;;;;;;;;;;;11.56;49.86;101812.47;5014123;27;116253;-63
2022/12/01 12:43:06;;;;;;;;;;;;;;;11.55;49.70;101814.34;4980339;27;121081;-65
2022/12/01 12:45:56;;;;;;;;;;;;;;;11.55;49.81;101808.94;5000233;27;127371;-63
2022/12/01 12:48:50;;;;;;;;;;;;;;;11.54;49.78;101807.28;4986560;27;118019;-63
2022/12/01 12:51:30;;;;;;;;;;;;;;;11.55;49.70;101810.81;5015029;27;97924;-65